Donnybrook, North Dakota
Current Conditions -  °F | °C
As of 1:58 AM on Saturday 20 Dec 2014 (Local Time) from KMIB Reporting Station
Freezing Drizzle Freezing Drizzle  
Wind Chill: 22°   Ceiling: 100
Heat Index: 22°   Visibility: 0.5mi
Dew Point: 22°   Wind: 1mph
Humidity: 100%   Direction: 90°E
Pressure: 29.92"   Gusts: NA
Location:  48.51°N, 101.89°W
Report Text: KMIB 200758Z AUTO 09001KT 1/2SM R29/1000FT -FZDZ FZFG VV001 M05/M05 A2992 RMK AO2 DZE0711B0740 SLP162 P0000 T10531053 $
Loading
Personal Weather Stations






























Interactive Weather Map New forecast layout! Learn more

10-Day Weather Forecast

Advertisements
Track Severe Weather on mobile